Krasnye Baki, Russia
Current Conditions -  °F | °C
As of 4:30 AM on Saturday 22 Nov 2014 (Local Time) from UWGG Reporting Station
Haze Haze  
Wind Chill: 19°   Ceiling: 600
Heat Index: 25°   Visibility: 3mi
Dew Point: 25°   Wind: 4mph
Humidity: 100%   Direction: NA
Pressure: 30.42"   Gusts: NA
Location:  57.13°N, 45.17°E
Report Text: UWGG 220130Z VRB02MPS 5000 BR OVC006 M04/M04 Q1030 NOSIG36090060 RMK QFE765
Loading
Personal Weather Stations






























Interactive Weather Map New forecast layout! Learn more

10-Day Weather Forecast

Advertisements
Track Severe Weather on mobile